Airfield :
LOGIN :

Register | Disclaimer

   EN    FR    IT 

 










Legend :    VFR   Marginal VFR   IFR   Intensive IFR   Very Intensive IFR
Visi :
Ceiling :
>= 8 km
>= 3000ft
5 to 8 km
1000 to 3000 ft
1500m to 5 km
500 to 1000 ft
800 to 1500m
200 to 500 ft
< 800m
< 200 ft
Symbols :   Thunderstorms  Fog  Heavy snow  Heavy precipitations  Wind > 20 kt
SIGMETs :     Misc.  Thunderstorms  Icing  Turbulence  Mountain Waves  Volcanic Ashes







- Airport Elevation : 184 ft
- IATA code : BRU


EBBR - Bruxelles

CURRENT METAR :
  • 232220Z 17004KT 140V200 CAVOK 18/14 Q1020 NOSIG

EXPIRED METARs :
  • 232150Z VRB02G13KT CAVOK 18/16 Q1020 RETS NOSIG
  • 232120Z 06002KT CAVOK 17/16 Q1019 RETS NOSIG
  • 232050Z 02003KT 9999 VCTS FEW060CB 17/16 Q1019 NOSIG
  • 232020Z 35002KT 9999 VCTS FEW060CB 18/17 Q1019 NOSIG
  • 231950Z VRB01KT CAVOK 18/16 Q1019 NOSIG

TAF TAF EBBR
Valid from the 23 at 18:00 until the 25 at 00:00 UTC


231700Z 2318/2424 03008KT 8000 SCT040
PROB30
TEMPO 2318/2321 VRB15G25KT 3500 SHRA TSRAGS
PROB30
TEMPO 2401/2406 3500 BR
PROB40
TEMPO 2412/2421 VRB18G28KT 2500 SHRA TSRAGR
No reported NOTAMs for that airfield.
1 SIGMET reported for the Brussels FIR (EBBU) :
 
Frequent thunderstorms
EBBU SIGMET 04 VALID 231917/232317 EBBR
EBBU BRUSSELS FIR FRQ TS OBS S OF N5010 TOP ABV FL340 MOV W15KT NC=



MET'MAP, your aeronautical weather chart ! - Copyright ORBIFLY December 2007 - Disclaimer

ORBIFLY MET'MAP TEAM :

Programming & Development : Alexandra Zaïnal
Concept & Development : Baudouin d'Aumeries
Co-Development & Prog : Marc-Olivier Méhu
Technical & hardware support : Manuel Goepfert

Contact : metmap@orbifly.com




SOURCES & CREDITS :

   NOAA